Time,TemperatureF,DewpointF,PressureIn,WindDirection,WindDirectionDegrees,WindSpeedMPH,WindSpeedGustMPH,Humidity,HourlyPrecipIn,Conditions,Clouds,dailyrainin,SoftwareType,DateUTC
2013-04-13 00:03:00,27.1,21.5,28.76,SSE,162,10.4,13.4,77,-99.99,,,-99.99,WSDL version 420,2013-04-13 06:03:00,
2013-04-13 00:08:00,27.1,21.6,28.76,South,176,9.8,13.4,77,-99.99,,,-99.99,WSDL version 420,2013-04-13 06:08:00,
2013-04-13 00:13:00,27.1,21.6,28.76,SSE,158,11.5,14.8,77,-99.99,,,-99.99,WSDL version 420,2013-04-13 06:13:00,
2013-04-13 00:19:00,27.2,21.4,28.76,South,169,11.7,14.8,76,0.00,,,0.00,WSDL version 420,2013-04-13 06:19:00,
2013-04-13 00:24:00,27.1,21.3,28.76,SSE,158,11.6,14.8,76,-99.99,,,-99.99,WSDL version 420,2013-04-13 06:24:00,
2013-04-13 00:30:00,27.3,21.6,28.76,South,180,13.0,16.8,77,-99.99,,,-99.99,WSDL version 420,2013-04-13 06:30:00,
2013-04-13 00:35:00,27.3,21.6,28.76,South,173,12.5,16.8,76,0.00,,,0.00,WSDL version 420,2013-04-13 06:35:00,
2013-04-13 00:40:00,27.3,21.5,28.76,SSE,158,12.5,14.8,76,0.00,,,0.00,WSDL version 420,2013-04-13 06:40:00,
2013-04-13 00:45:00,27.3,21.8,28.76,SSE,158,11.4,15.2,77,-99.99,,,-99.99,WSDL version 420,2013-04-13 06:45:00,
2013-04-13 00:52:00,27.4,21.8,28.73,South,169,10.1,15.2,77,0.00,,,0.00,WSDL version 420,2013-04-13 06:52:00,
2013-04-13 00:57:00,27.3,21.8,28.73,SSE,162,8.7,15.2,77,0.00,,,0.00,WSDL version 420,2013-04-13 06:57:00,
2013-04-13 01:03:00,27.1,21.6,28.73,SSE,158,11.2,15.2,77,0.00,,,0.00,WSDL version 420,2013-04-13 07:03:00,
2013-04-13 01:09:00,26.9,21.3,28.73,SE,145,9.5,12.8,77,0.00,,,0.00,WSDL version 420,2013-04-13 07:09:00,
2013-04-13 01:14:00,26.6,21.3,28.73,South,180,8.8,12.8,78,0.00,,,0.00,WSDL version 420,2013-04-13 07:14:00,
2013-04-13 01:19:00,26.3,21.1,28.73,SSE,161,9.2,12.3,78,0.00,,,0.00,WSDL version 420,2013-04-13 07:19:00,
2013-04-13 01:24:00,26.2,21.3,28.73,SSE,165,9.5,13.0,79,0.00,,,0.00,WSDL version 420,2013-04-13 07:24:00,
2013-04-13 01:30:00,-999.0,-99.9,28.73,SSE,158,10.6,13.0,-999,0.00,,,0.00,WSDL version 420,2013-04-13 07:30:00,
2013-04-13 01:35:00,26.4,21.4,28.73,South,180,10.0,14.3,79,0.00,,,0.00,WSDL version 420,2013-04-13 07:35:00,
2013-04-13 01:40:00,26.4,21.6,28.73,SSE,167,10.5,14.8,80,0.00,,,0.00,WSDL version 420,2013-04-13 07:40:00,
2013-04-13 01:45:00,26.4,21.7,28.73,SSE,158,11.4,14.8,80,0.00,,,0.00,WSDL version 420,2013-04-13 07:45:00,
2013-04-13 01:51:00,26.4,21.7,28.73,SSE,165,11.7,15.4,80,0.00,,,0.00,WSDL version 420,2013-04-13 07:51:00,
2013-04-13 01:57:00,26.6,21.8,28.73,South,170,11.4,15.7,80,0.00,,,0.00,WSDL version 420,2013-04-13 07:57:00,
2013-04-13 02:03:00,26.6,21.9,28.70,SSE,163,10.8,16.1,80,-99.99,,,-99.99,WSDL version 420,2013-04-13 08:03:00,
2013-04-13 02:08:00,26.6,21.9,28.70,SSE,158,12.6,16.1,80,0.00,,,0.00,WSDL version 420,2013-04-13 08:08:00,
2013-04-13 02:13:00,26.6,21.9,28.70,SSE,167,10.6,15.4,80,0.00,,,0.00,WSDL version 420,2013-04-13 08:13:00,
2013-04-13 02:18:00,26.5,21.7,28.70,SSE,158,13.2,14.5,80,-99.99,,,-99.99,WSDL version 420,2013-04-13 08:18:00,
2013-04-13 02:23:00,26.4,22.0,28.70,SSE,161,11.5,17.0,81,-99.99,,,-99.99,WSDL version 420,2013-04-13 08:23:00,
2013-04-13 02:28:00,26.4,22.0,28.70,SSE,158,12.2,17.0,81,-99.99,,,-99.99,WSDL version 420,2013-04-13 08:28:00,
2013-04-13 02:33:00,26.4,21.9,28.67,SSE,154,12.2,16.3,81,-99.99,,,-99.99,WSDL version 420,2013-04-13 08:33:00,
2013-04-13 02:38:00,26.4,21.9,28.67,SSE,158,13.4,17.7,80,-99.99,,,-99.99,WSDL version 420,2013-04-13 08:38:00,
2013-04-13 02:46:00,26.4,21.7,28.67,SSE,163,11.4,17.2,80,0.00,,,0.00,WSDL version 420,2013-04-13 08:46:00,
2013-04-13 02:51:00,26.6,21.9,28.67,SSE,158,9.4,16.1,80,0.00,,,0.00,WSDL version 420,2013-04-13 08:51:00,
2013-04-13 02:57:00,26.6,21.8,28.67,SSE,158,9.4,10.1,79,0.00,,,0.00,WSDL version 420,2013-04-13 08:57:00,
2013-04-13 03:05:00,26.4,21.4,28.67,SSE,158,14.9,17.4,79,0.00,,,0.00,WSDL version 420,2013-04-13 09:05:00,
2013-04-13 03:10:00,26.4,21.4,28.67,SSE,158,12.6,19.9,79,-99.99,,,-99.99,WSDL version 420,2013-04-13 09:10:00,
2013-04-13 03:16:00,26.4,21.4,28.67,SSE,163,14.3,19.9,79,0.00,,,0.00,WSDL version 420,2013-04-13 09:16:00,
2013-04-13 03:22:00,26.4,21.4,28.64,SSE,158,12.2,18.1,79,0.00,,,0.00,WSDL version 420,2013-04-13 09:22:00,
2013-04-13 03:28:00,26.3,21.3,28.64,SSE,164,11.6,18.6,79,0.00,,,0.00,WSDL version 420,2013-04-13 09:28:00,
2013-04-13 03:34:00,26.5,21.6,28.61,SSE,158,10.2,18.6,79,0.00,,,0.00,WSDL version 420,2013-04-13 09:34:00,
2013-04-13 03:40:00,26.5,21.5,28.61,SSE,158,9.3,13.2,79,0.00,,,0.00,WSDL version 420,2013-04-13 09:40:00,
2013-04-13 03:45:00,26.3,21.3,28.61,SSE,158,8.7,13.0,79,0.00,,,0.00,WSDL version 420,2013-04-13 09:45:00,
2013-04-13 03:50:00,26.5,21.5,28.61,SSE,158,8.7,13.0,79,0.00,,,0.00,WSDL version 420,2013-04-13 09:50:00,
2013-04-13 03:56:00,26.9,21.9,28.61,SSE,158,8.7,10.3,79,0.00,,,0.00,WSDL version 420,2013-04-13 09:56:00,
2013-04-13 04:02:00,27.1,21.8,28.61,North,-999,-999.0,-999.0,78,0.00,,,0.00,WSDL version 420,2013-04-13 10:02:00,
2013-04-13 04:07:00,27.1,21.8,28.61,SSE,158,13.6,20.1,78,0.00,,,0.00,WSDL version 420,2013-04-13 10:07:00,
2013-04-13 04:14:00,27.1,21.8,28.61,SSE,158,13.6,20.1,78,-99.99,,,-99.99,WSDL version 420,2013-04-13 10:14:00,
2013-04-13 04:20:00,27.3,21.9,28.61,South,180,12.8,20.1,77,0.00,,,0.00,WSDL version 420,2013-04-13 10:20:00,
2013-04-13 04:25:00,27.3,21.8,28.61,South,180,12.8,12.8,77,0.00,,,0.00,WSDL version 420,2013-04-13 10:25:00,
2013-04-13 04:30:00,27.3,22.0,28.61,South,180,12.8,12.8,78,0.00,,,0.00,WSDL version 420,2013-04-13 10:30:00,
2013-04-13 04:35:00,27.5,22.2,28.59,South,180,11.4,12.8,78,-99.99,,,-99.99,WSDL version 420,2013-04-13 10:35:00,
2013-04-13 04:40:00,27.7,22.5,28.59,South,171,7.7,12.8,79,0.00,,,0.00,WSDL version 420,2013-04-13 10:40:00,
2013-04-13 04:46:00,27.8,22.8,28.59,South,180,9.2,10.3,79,0.00,,,0.00,WSDL version 420,2013-04-13 10:46:00,
2013-04-13 04:52:00,28.0,22.9,28.59,SSE,161,6.1,9.8,79,0.00,,,0.00,WSDL version 420,2013-04-13 10:52:00,
2013-04-13 04:57:00,28.0,23.0,28.59,SSE,150,9.4,9.4,79,0.00,,,0.00,WSDL version 420,2013-04-13 10:57:00,
2013-04-13 05:02:00,28.2,23.2,28.56,SSE,158,8.3,12.8,79,0.00,,,0.00,WSDL version 420,2013-04-13 11:02:00,
2013-04-13 05:07:00,28.4,23.4,28.56,SSE,158,8.8,13.0,79,0.00,,,0.00,WSDL version 420,2013-04-13 11:07:00,
2013-04-13 05:13:00,28.6,23.6,28.56,SE,146,8.8,14.3,79,-99.99,,,-99.99,WSDL version 420,2013-04-13 11:13:00,
2013-04-13 05:18:00,28.8,23.9,28.56,SSE,158,8.8,14.3,80,0.00,,,0.00,WSDL version 420,2013-04-13 11:18:00,
2013-04-13 05:24:00,29.2,24.4,28.56,South,180,11.4,12.3,80,0.00,,,0.00,WSDL version 420,2013-04-13 11:24:00,
2013-04-13 05:29:00,29.5,24.7,28.56,SSE,158,12.5,13.0,80,0.00,,,0.00,WSDL version 420,2013-04-13 11:29:00,
2013-04-13 05:35:00,29.7,24.6,28.56,North,0,0.0,13.0,79,0.00,,,0.00,WSDL version 420,2013-04-13 11:35:00,
2013-04-13 05:40:00,29.8,24.6,28.56,SSE,158,13.9,17.4,78,0.00,,,0.00,WSDL version 420,2013-04-13 11:40:00,
2013-04-13 05:45:00,29.8,24.5,28.56,SSE,158,11.4,17.4,78,0.00,,,0.00,WSDL version 420,2013-04-13 11:45:00,
2013-04-13 05:50:00,29.8,24.5,28.56,SSE,158,11.9,17.4,78,0.00,,,0.00,WSDL version 420,2013-04-13 11:50:00,
2013-04-13 05:55:00,29.9,24.5,28.56,SSE,158,15.7,17.7,77,0.00,,,0.00,WSDL version 420,2013-04-13 11:55:00,
2013-04-13 06:00:00,30.0,24.4,28.56,SSE,158,12.8,17.7,77,0.00,,,0.00,WSDL version 420,2013-04-13 12:00:00,
2013-04-13 06:05:00,30.0,24.4,28.56,SSW,203,12.5,17.7,77,0.00,,,0.00,WSDL version 420,2013-04-13 12:05:00,
2013-04-13 06:12:00,29.9,24.3,28.56,SSE,158,6.5,12.5,77,0.00,,,0.00,WSDL version 420,2013-04-13 12:12:00,
2013-04-13 06:17:00,30.0,24.4,28.56,SSE,158,6.7,10.5,77,0.00,,,0.00,WSDL version 420,2013-04-13 12:17:00,
2013-04-13 06:22:00,30.0,24.4,28.56,SSE,158,4.9,10.5,77,0.00,,,0.00,WSDL version 420,2013-04-13 12:22:00,
2013-04-13 06:28:00,30.0,24.4,28.56,SE,135,2.9,6.0,77,0.00,,,0.00,WSDL version 420,2013-04-13 12:28:00,
2013-04-13 06:34:00,30.0,24.0,28.56,SSE,158,8.7,8.7,75,0.00,,,0.00,WSDL version 420,2013-04-13 12:34:00,
2013-04-13 06:39:00,30.0,23.9,28.56,ESE,113,8.7,9.2,75,0.00,,,0.00,WSDL version 420,2013-04-13 12:39:00,
2013-04-13 06:44:00,30.0,23.9,28.56,SE,135,6.5,11.0,75,0.00,,,0.00,WSDL version 420,2013-04-13 12:44:00,
2013-04-13 06:50:00,29.8,23.5,28.53,SSE,158,9.4,13.2,74,0.00,,,0.00,WSDL version 420,2013-04-13 12:50:00,
2013-04-13 06:55:00,29.8,23.7,28.53,SSE,158,10.6,17.0,75,0.00,,,0.00,WSDL version 420,2013-04-13 12:55:00,
2013-04-13 07:00:00,29.8,23.7,28.53,SSE,158,10.4,17.0,75,0.00,,,0.00,WSDL version 420,2013-04-13 13:00:00,
2013-04-13 07:06:00,29.8,23.6,28.50,SSE,163,8.7,15.4,75,0.00,,,0.00,WSDL version 420,2013-04-13 13:06:00,
2013-04-13 07:11:00,29.8,23.5,28.50,SSE,158,11.8,13.9,74,-99.99,,,-99.99,WSDL version 420,2013-04-13 13:11:00,
2013-04-13 07:16:00,29.8,23.3,28.50,SSE,158,10.7,13.9,73,0.00,,,0.00,WSDL version 420,2013-04-13 13:16:00,
2013-04-13 07:21:00,29.9,23.2,28.50,SSE,158,10.1,10.1,73,0.00,,,0.00,WSDL version 420,2013-04-13 13:21:00,
2013-04-13 07:26:00,30.0,23.3,28.50,SSE,158,10.2,10.7,73,0.00,,,0.00,WSDL version 420,2013-04-13 13:26:00,
2013-04-13 07:32:00,30.2,23.2,28.50,SSE,158,10.1,15.4,72,0.00,,,0.00,WSDL version 420,2013-04-13 13:32:00,
2013-04-13 07:37:00,30.2,23.2,28.50,SE,143,7.5,15.4,72,0.00,,,0.00,WSDL version 420,2013-04-13 13:37:00,
2013-04-13 07:45:00,30.6,23.4,28.50,SE,144,12.1,15.2,71,0.00,,,0.00,WSDL version 420,2013-04-13 13:45:00,
2013-04-13 07:50:00,30.7,23.4,28.50,ENE,68,5.7,12.8,71,0.00,,,0.00,WSDL version 420,2013-04-13 13:50:00,
2013-04-13 07:55:00,31.3,23.9,28.50,North,8,3.4,9.6,71,0.00,,,0.00,WSDL version 420,2013-04-13 13:55:00,
2013-04-13 08:00:00,31.8,24.4,28.50,NNE,14,4.1,6.0,70,0.00,,,0.00,WSDL version 420,2013-04-13 14:00:00,
2013-04-13 08:05:00,32.5,23.8,28.50,ENE,58,2.9,6.3,70,0.00,,,0.00,WSDL version 420,2013-04-13 14:05:00,
2013-04-13 08:10:00,32.9,23.6,28.50,ESE,122,3.0,6.3,68,0.00,,,0.00,WSDL version 420,2013-04-13 14:10:00,
2013-04-13 08:15:00,33.4,23.1,28.50,SE,143,4.8,6.3,64,0.00,,,0.00,WSDL version 420,2013-04-13 14:15:00,
2013-04-13 08:22:00,34.3,22.3,28.47,SSE,158,7.1,10.5,60,0.00,,,0.00,WSDL version 420,2013-04-13 14:22:00,
2013-04-13 08:27:00,34.4,21.7,28.47,SSE,154,7.2,13.2,59,0.00,,,0.00,WSDL version 420,2013-04-13 14:27:00,
2013-04-13 08:32:00,34.2,21.0,28.47,SSE,165,7.8,13.2,58,0.00,,,0.00,WSDL version 420,2013-04-13 14:32:00,
2013-04-13 08:37:00,34.2,21.1,28.47,SSE,148,12.1,15.7,58,0.00,,,0.00,WSDL version 420,2013-04-13 14:37:00,
2013-04-13 08:43:00,35.0,21.3,28.47,SSE,154,7.7,15.7,57,0.00,,,0.00,WSDL version 420,2013-04-13 14:43:00,
2013-04-13 08:48:00,38.0,22.0,28.47,East,86,7.5,12.8,52,0.00,,,0.00,WSDL version 420,2013-04-13 14:48:00,
2013-04-13 08:54:00,39.7,22.1,28.47,SE,135,6.4,10.5,47,0.00,,,0.00,WSDL version 420,2013-04-13 14:54:00,
2013-04-13 09:00:00,44.3,22.5,28.47,SE,141,6.5,10.5,40,0.00,,,0.00,WSDL version 420,2013-04-13 15:00:00,
2013-04-13 09:05:00,41.7,19.1,28.44,SSE,158,10.0,12.1,40,0.00,,,0.00,WSDL version 420,2013-04-13 15:05:00,
2013-04-13 09:10:00,43.6,20.6,28.44,SSE,150,10.8,17.4,39,0.00,,,0.00,WSDL version 420,2013-04-13 15:10:00,
2013-04-13 09:16:00,44.5,20.6,28.44,SSE,161,11.4,17.4,38,0.00,,,0.00,WSDL version 420,2013-04-13 15:16:00,
2013-04-13 09:23:00,47.0,21.6,28.44,SSE,162,10.5,16.8,35,0.00,,,0.00,WSDL version 420,2013-04-13 15:23:00,
2013-04-13 09:29:00,48.3,20.9,28.44,SSE,154,8.0,15.2,33,-99.99,,,-99.99,WSDL version 420,2013-04-13 15:29:00,
2013-04-13 09:34:00,46.5,19.2,28.44,SE,146,7.6,15.2,34,0.00,,,0.00,WSDL version 420,2013-04-13 15:34:00,
2013-04-13 09:40:00,43.8,18.8,28.44,SSE,158,10.9,14.1,37,0.00,,,0.00,WSDL version 420,2013-04-13 15:40:00,
2013-04-13 09:45:00,42.4,18.8,28.44,SSE,148,9.5,13.2,39,0.00,,,0.00,WSDL version 420,2013-04-13 15:45:00,
2013-04-13 09:50:00,43.9,19.9,28.44,SSE,149,9.1,13.2,38,0.00,,,0.00,WSDL version 420,2013-04-13 15:50:00,
2013-04-13 09:55:00,43.8,19.8,28.44,SSE,161,9.7,15.2,38,0.00,,,0.00,WSDL version 420,2013-04-13 15:55:00,
2013-04-13 10:00:00,46.1,21.5,28.44,SSE,158,10.4,16.8,37,0.00,,,0.00,WSDL version 420,2013-04-13 16:00:00,
2013-04-13 10:07:00,44.2,20.4,28.44,SSE,158,13.4,22.8,39,0.00,,,0.00,WSDL version 420,2013-04-13 16:07:00,
2013-04-13 10:12:00,43.5,20.2,28.44,SSE,165,15.7,22.8,39,0.00,,,0.00,WSDL version 420,2013-04-13 16:12:00,
2013-04-13 10:18:00,43.8,20.5,28.44,SSE,162,16.1,21.3,39,0.00,,,0.00,WSDL version 420,2013-04-13 16:18:00,
2013-04-13 10:25:00,44.1,20.8,28.44,South,169,17.3,25.9,39,0.00,,,0.00,WSDL version 420,2013-04-13 16:25:00,
2013-04-13 10:30:00,45.4,21.6,28.44,South,176,14.5,25.9,38,0.00,,,0.00,WSDL version 420,2013-04-13 16:30:00,
2013-04-13 10:35:00,46.2,22.0,28.41,South,186,18.3,23.9,38,0.00,,,0.00,WSDL version 420,2013-04-13 16:35:00,
2013-04-13 10:40:00,45.5,21.4,28.41,SSE,158,17.0,24.4,38,0.00,,,0.00,WSDL version 420,2013-04-13 16:40:00,
2013-04-13 10:45:00,46.4,22.2,28.41,SSE,168,17.8,24.4,38,0.00,,,0.00,WSDL version 420,2013-04-13 16:45:00,
2013-04-13 10:50:00,47.2,22.9,28.41,SSE,158,16.0,25.1,38,0.00,,,0.00,WSDL version 420,2013-04-13 16:50:00,
2013-04-13 10:55:00,47.4,22.4,28.41,SSE,158,20.4,25.1,37,0.00,,,0.00,WSDL version 420,2013-04-13 16:55:00,
2013-04-13 11:01:00,48.6,23.5,28.41,SE,146,17.3,27.3,37,0.00,,,0.00,WSDL version 420,2013-04-13 17:01:00,
2013-04-13 11:06:00,47.8,22.8,28.41,South,174,14.9,27.3,37,0.00,,,0.00,WSDL version 420,2013-04-13 17:06:00,
2013-04-13 11:11:00,48.9,23.8,28.41,SSE,158,15.0,19.7,37,0.00,,,0.00,WSDL version 420,2013-04-13 17:11:00,
2013-04-13 11:16:00,51.1,24.1,28.41,SSE,167,16.9,21.3,33,0.00,,,0.00,WSDL version 420,2013-04-13 17:16:00,
2013-04-13 11:21:00,52.4,23.7,28.41,SSE,167,15.7,22.4,32,0.00,,,0.00,WSDL version 420,2013-04-13 17:21:00,
2013-04-13 11:27:00,53.6,23.7,28.41,South,186,12.4,22.4,31,0.00,,,0.00,WSDL version 420,2013-04-13 17:27:00,
2013-04-13 11:33:00,54.7,23.7,28.41,South,186,10.6,17.2,29,0.00,,,0.00,WSDL version 420,2013-04-13 17:33:00,
2013-04-13 11:38:00,55.5,23.8,28.41,South,183,10.8,17.2,29,0.00,,,0.00,WSDL version 420,2013-04-13 17:38:00,
2013-04-13 11:43:00,55.1,23.4,28.41,South,188,11.6,17.2,29,0.00,,,0.00,WSDL version 420,2013-04-13 17:43:00,
2013-04-13 11:48:00,54.4,23.3,28.38,South,191,12.0,17.0,30,-99.99,,,-99.99,WSDL version 420,2013-04-13 17:48:00,
2013-04-13 11:54:00,55.2,23.5,28.38,South,188,10.5,15.2,29,0.00,,,0.00,WSDL version 420,2013-04-13 17:54:00,
2013-04-13 11:59:00,56.4,23.3,28.38,SSW,203,10.2,14.8,27,0.00,,,0.00,WSDL version 420,2013-04-13 17:59:00,
2013-04-13 12:05:00,57.7,22.6,28.41,SSW,211,8.6,12.8,25,0.00,,,0.00,WSDL version 420,2013-04-13 18:05:00,
2013-04-13 12:11:00,56.9,21.7,28.41,SSW,212,8.9,14.5,26,0.00,,,0.00,WSDL version 420,2013-04-13 18:11:00,
2013-04-13 12:17:00,55.9,21.6,28.41,SSW,206,11.8,13.0,26,0.00,,,0.00,WSDL version 420,2013-04-13 18:17:00,
2013-04-13 12:23:00,55.9,21.6,28.38,SSW,203,10.9,15.4,26,0.00,,,0.00,WSDL version 420,2013-04-13 18:23:00,
2013-04-13 12:27:00,57.3,21.8,28.38,SSW,203,10.1,15.4,25,0.00,,,0.00,WSDL version 420,2013-04-13 18:27:00,
2013-04-13 12:28:00,57.3,21.8,28.38,SSW,206,10.2,15.4,25,0.00,,,0.00,WSDL version 420,2013-04-13 18:28:00,
2013-04-13 12:29:00,57.4,21.9,28.38,SSW,206,11.0,17.7,25,0.00,,,0.00,WSDL version 420,2013-04-13 18:29:00,
2013-04-13 12:34:00,58.0,22.4,28.38,SSW,207,10.0,17.7,25,0.00,,,0.00,WSDL version 420,2013-04-13 18:34:00,
2013-04-13 12:37:00,58.6,22.9,28.38,South,191,9.1,17.7,25,0.00,,,0.00,WSDL version 420,2013-04-13 18:37:00,
2013-04-13 12:42:00,59.8,24.0,28.38,SSW,203,10.4,13.0,25,0.00,,,0.00,WSDL version 420,2013-04-13 18:42:00,
2013-04-13 12:47:00,59.8,23.7,28.38,SSW,199,10.2,15.4,25,-99.99,,,-99.99,WSDL version 420,2013-04-13 18:47:00,
2013-04-13 12:52:00,58.8,23.0,28.38,SW,215,10.5,15.4,25,0.00,,,0.00,WSDL version 420,2013-04-13 18:52:00,
2013-04-13 12:58:00,59.3,22.5,28.38,SW,225,8.5,13.0,24,0.00,,,0.00,WSDL version 420,2013-04-13 18:58:00,
2013-04-13 13:03:00,59.6,22.8,28.35,SSW,209,10.2,14.5,24,0.00,,,0.00,WSDL version 420,2013-04-13 19:03:00,
2013-04-13 13:08:00,59.5,22.7,28.35,SSW,211,10.1,14.5,24,0.00,,,0.00,WSDL version 420,2013-04-13 19:08:00,
2013-04-13 13:13:00,59.8,23.0,28.35,SSW,212,9.9,14.8,24,0.00,,,0.00,WSDL version 420,2013-04-13 19:13:00,
2013-04-13 13:18:00,60.5,23.5,28.35,SW,225,8.8,14.8,24,0.00,,,0.00,WSDL version 420,2013-04-13 19:18:00,
2013-04-13 13:23:00,61.2,24.2,28.35,SSW,212,9.2,13.6,24,0.00,,,0.00,WSDL version 420,2013-04-13 19:23:00,
2013-04-13 13:28:00,60.6,23.7,28.35,SSW,199,10.7,17.4,24,0.00,,,0.00,WSDL version 420,2013-04-13 19:28:00,
2013-04-13 13:33:00,60.9,23.9,28.35,SW,225,10.1,17.4,24,0.00,,,0.00,WSDL version 420,2013-04-13 19:33:00,
2013-04-13 13:38:00,60.6,23.7,28.35,WSW,238,10.8,14.8,24,0.00,,,0.00,WSDL version 420,2013-04-13 19:38:00,
2013-04-13 13:43:00,60.4,23.5,28.35,SSW,203,10.9,15.4,24,0.00,,,0.00,WSDL version 420,2013-04-13 19:43:00,
2013-04-13 13:48:00,60.7,21.9,28.35,SW,218,9.4,16.6,21,0.00,,,0.00,WSDL version 420,2013-04-13 19:48:00,
2013-04-13 13:53:00,60.9,21.8,28.35,SW,218,11.7,16.6,21,-99.99,,,-99.99,WSDL version 420,2013-04-13 19:53:00,
2013-04-13 13:58:00,60.4,21.4,28.35,SSW,209,8.6,14.8,22,0.00,,,0.00,WSDL version 420,2013-04-13 19:58:00,
2013-04-13 14:03:00,59.8,21.6,28.35,SSW,208,9.3,15.4,22,0.00,,,0.00,WSDL version 420,2013-04-13 20:03:00,
2013-04-13 14:08:00,59.1,20.3,28.35,SSW,205,11.5,15.4,22,0.00,,,0.00,WSDL version 420,2013-04-13 20:08:00,
2013-04-13 14:13:00,58.7,21.3,28.35,SW,229,10.6,15.2,22,0.00,,,0.00,WSDL version 420,2013-04-13 20:13:00,
2013-04-13 14:18:00,58.6,20.9,28.35,SSW,197,10.3,16.1,22,0.00,,,0.00,WSDL version 420,2013-04-13 20:18:00,
2013-04-13 14:23:00,58.3,21.7,28.35,SW,214,10.0,16.1,24,-99.99,,,-99.99,WSDL version 420,2013-04-13 20:23:00,
2013-04-13 14:28:00,58.1,20.5,28.35,West,278,11.4,14.8,22,0.00,,,0.00,WSDL version 420,2013-04-13 20:28:00,
2013-04-13 14:34:00,57.8,21.3,28.35,SSW,206,10.0,15.2,24,0.00,,,0.00,WSDL version 420,2013-04-13 20:34:00,
2013-04-13 14:39:00,56.8,21.1,28.35,SSW,208,10.9,15.2,25,0.00,,,0.00,WSDL version 420,2013-04-13 20:39:00,
2013-04-13 14:44:00,56.4,21.0,28.35,SSW,199,9.1,13.4,25,0.00,,,0.00,WSDL version 420,2013-04-13 20:44:00,
2013-04-13 14:49:00,56.2,20.9,28.32,SW,214,7.9,16.1,25,0.00,,,0.00,WSDL version 420,2013-04-13 20:49:00,
2013-04-13 14:54:00,55.7,20.4,28.32,SSW,208,11.1,17.7,25,0.00,,,0.00,WSDL version 420,2013-04-13 20:54:00,
2013-04-13 14:59:00,55.3,20.7,28.32,SSW,196,11.1,17.7,26,0.00,,,0.00,WSDL version 420,2013-04-13 20:59:00,
2013-04-13 15:04:00,55.3,20.7,28.32,SSW,209,7.4,14.3,25,0.00,,,0.00,WSDL version 420,2013-04-13 21:04:00,
2013-04-13 15:09:00,55.7,20.4,28.32,SSW,203,9.5,13.0,25,0.00,,,0.00,WSDL version 420,2013-04-13 21:09:00,
2013-04-13 15:14:00,57.0,21.5,28.32,SW,228,9.0,13.0,25,0.00,,,0.00,WSDL version 420,2013-04-13 21:14:00,
2013-04-13 15:19:00,57.6,22.1,28.32,SSW,206,8.6,13.0,25,0.00,,,0.00,WSDL version 420,2013-04-13 21:19:00,
2013-04-13 15:24:00,57.7,21.4,28.32,SW,225,10.0,15.2,24,0.00,,,0.00,WSDL version 420,2013-04-13 21:24:00,
2013-04-13 15:29:00,58.6,22.7,28.32,SW,231,6.3,15.2,24,0.00,,,0.00,WSDL version 420,2013-04-13 21:29:00,
2013-04-13 15:34:00,59.2,22.4,28.32,SSW,199,5.6,10.7,24,0.00,,,0.00,WSDL version 420,2013-04-13 21:34:00,
2013-04-13 15:39:00,59.3,22.5,28.32,SSW,199,6.9,10.7,24,0.00,,,0.00,WSDL version 420,2013-04-13 21:39:00,
2013-04-13 15:44:00,58.8,22.1,28.32,SW,219,9.4,12.1,24,0.00,,,0.00,WSDL version 420,2013-04-13 21:44:00,
2013-04-13 15:49:00,59.0,22.3,28.32,SW,228,7.7,12.1,24,0.00,,,0.00,WSDL version 420,2013-04-13 21:49:00,
2013-04-13 15:54:00,59.9,23.1,28.32,SSW,199,6.0,10.5,24,0.00,,,0.00,WSDL version 420,2013-04-13 21:54:00,
2013-04-13 15:59:00,-999.0,-99.9,28.32,SW,221,9.4,13.4,-999,0.00,,,0.00,WSDL version 420,2013-04-13 21:59:00,
2013-04-13 16:04:00,59.5,22.7,28.32,SW,222,8.5,13.4,24,0.00,,,0.00,WSDL version 420,2013-04-13 22:04:00,
2013-04-13 16:09:00,59.1,22.4,28.32,SSW,203,9.8,12.8,24,0.00,,,0.00,WSDL version 420,2013-04-13 22:09:00,
2013-04-13 16:14:00,58.7,22.0,28.32,SSW,196,9.6,12.8,24,0.00,,,0.00,WSDL version 420,2013-04-13 22:14:00,
2013-04-13 16:19:00,58.5,21.8,28.29,SW,216,7.7,12.8,24,0.00,,,0.00,WSDL version 420,2013-04-13 22:19:00,
2013-04-13 16:24:00,59.3,21.5,28.29,WSW,240,7.7,12.1,22,-99.99,,,-99.99,WSDL version 420,2013-04-13 22:24:00,
2013-04-13 16:29:00,59.2,20.4,28.29,West,266,7.7,13.4,22,0.00,,,0.00,WSDL version 420,2013-04-13 22:29:00,
2013-04-13 16:34:00,59.4,20.6,28.29,WSW,242,11.5,17.2,22,0.00,,,0.00,WSDL version 420,2013-04-13 22:34:00,
2013-04-13 16:39:00,59.4,20.5,28.29,SW,235,8.9,17.2,22,0.00,,,0.00,WSDL version 420,2013-04-13 22:39:00,
2013-04-13 16:44:00,59.1,20.3,28.29,SW,225,9.2,13.0,22,0.00,,,0.00,WSDL version 420,2013-04-13 22:44:00,
2013-04-13 16:49:00,59.0,20.2,28.29,SW,235,9.6,13.0,22,0.00,,,0.00,WSDL version 420,2013-04-13 22:49:00,
2013-04-13 16:54:00,58.9,20.1,28.29,SW,222,11.0,13.2,22,0.00,,,0.00,WSDL version 420,2013-04-13 22:54:00,
2013-04-13 16:59:00,58.9,20.2,28.29,WSW,252,10.1,13.2,22,0.00,,,0.00,WSDL version 420,2013-04-13 22:59:00,
2013-04-13 17:04:00,58.7,20.0,28.29,WSW,248,8.9,12.5,22,0.00,,,0.00,WSDL version 420,2013-04-13 23:04:00,
2013-04-13 17:09:00,59.2,20.4,28.29,SSW,210,6.5,12.1,22,0.00,,,0.00,WSDL version 420,2013-04-13 23:09:00,
2013-04-13 17:14:00,59.2,20.4,28.29,SSW,197,7.1,10.7,22,0.00,,,0.00,WSDL version 420,2013-04-13 23:14:00,
2013-04-13 17:19:00,58.2,19.5,28.26,SSW,203,6.0,10.3,22,0.00,,,0.00,WSDL version 420,2013-04-13 23:19:00,
2013-04-13 17:24:00,57.5,19.0,28.26,SSW,203,7.5,10.7,22,0.00,,,0.00,WSDL version 420,2013-04-13 23:24:00,
2013-04-13 17:29:00,56.5,21.1,28.26,SSW,203,11.5,17.2,25,0.00,,,0.00,WSDL version 420,2013-04-13 23:29:00,
2013-04-13 17:34:00,55.8,20.5,28.26,SSW,203,7.5,17.2,25,0.00,,,0.00,WSDL version 420,2013-04-13 23:34:00,
2013-04-13 17:39:00,55.3,20.8,28.26,SSW,203,8.4,15.4,26,0.00,,,0.00,WSDL version 420,2013-04-13 23:39:00,
2013-04-13 17:44:00,54.9,20.7,28.26,SSW,198,7.1,15.4,26,0.00,,,0.00,WSDL version 420,2013-04-13 23:44:00,
2013-04-13 17:49:00,54.5,20.3,28.26,SSW,197,6.0,8.7,26,0.00,,,0.00,WSDL version 420,2013-04-13 23:49:00,
2013-04-13 17:54:00,54.0,20.5,28.26,SSW,206,8.7,17.0,27,0.00,,,0.00,WSDL version 420,2013-04-13 23:54:00,
2013-04-13 17:59:00,53.5,20.8,28.26,SSW,205,10.4,17.0,28,0.00,,,0.00,WSDL version 420,2013-04-13 23:59:00,
2013-04-13 18:04:00,53.0,20.8,28.26,SW,221,10.1,13.9,28,0.00,,,0.00,WSDL version 420,2013-04-14 00:04:00,
2013-04-13 18:09:00,52.3,20.2,28.26,SW,216,11.6,14.8,28,0.00,,,0.00,WSDL version 420,2013-04-14 00:09:00,
2013-04-13 18:14:00,51.8,19.7,28.26,WSW,242,16.7,25.5,28,0.00,,,0.00,WSDL version 420,2013-04-14 00:14:00,
2013-04-13 18:19:00,51.6,19.6,28.26,West,264,17.1,25.5,28,0.00,,,0.00,WSDL version 420,2013-04-14 00:19:00,
2013-04-13 18:24:00,51.7,19.1,28.26,SW,234,10.7,21.9,28,0.00,,,0.00,WSDL version 420,2013-04-14 00:24:00,
2013-04-13 18:29:00,51.4,19.4,28.26,West,264,7.2,14.3,28,0.00,,,0.00,WSDL version 420,2013-04-14 00:29:00,
2013-04-13 18:34:00,50.9,19.2,28.26,WSW,248,4.5,14.3,29,0.00,,,0.00,WSDL version 420,2013-04-14 00:34:00,
2013-04-13 18:39:00,50.6,19.5,28.26,SW,231,5.5,9.6,29,0.00,,,0.00,WSDL version 420,2013-04-14 00:39:00,
2013-04-13 18:44:00,50.2,19.7,28.26,SSW,203,3.7,8.7,30,0.00,,,0.00,WSDL version 420,2013-04-14 00:44:00,
2013-04-13 18:49:00,50.0,22.5,28.26,SW,218,5.4,6.5,34,0.00,,,0.00,WSDL version 420,2013-04-14 00:49:00,
2013-04-13 18:54:00,49.3,23.7,28.26,WSW,240,10.1,37.6,37,0.00,,,0.00,WSDL version 420,2013-04-14 00:54:00,
2013-04-13 18:59:00,44.2,26.0,28.26,WNW,293,38.7,46.1,54,0.00,,,0.00,WSDL version 420,2013-04-14 00:59:00,
2013-04-13 19:04:00,40.6,26.8,28.32,West,270,32.2,46.1,59,0.00,,,0.00,WSDL version 420,2013-04-14 01:04:00,
2013-04-13 19:09:00,38.5,27.1,28.32,WNW,287,24.8,45.4,66,0.00,,,0.00,WSDL version 420,2013-04-14 01:09:00,
2013-04-13 19:14:00,37.2,27.9,28.32,NW,304,15.5,35.3,70,0.00,,,0.00,WSDL version 420,2013-04-14 01:14:00,
2013-04-13 19:19:00,36.4,28.8,28.32,West,266,17.4,28.9,74,0.00,,,0.00,WSDL version 420,2013-04-14 01:19:00,
2013-04-13 19:24:00,36.0,29.1,28.32,WNW,286,12.8,23.3,76,0.00,,,0.00,WSDL version 420,2013-04-14 01:24:00,
2013-04-13 19:29:00,35.6,28.9,28.32,WSW,248,11.2,17.9,77,0.00,,,0.00,WSDL version 420,2013-04-14 01:29:00,
2013-04-13 19:34:00,35.2,29.0,28.32,West,281,11.7,19.9,78,0.00,,,0.00,WSDL version 420,2013-04-14 01:34:00,
2013-04-13 19:39:00,34.9,29.0,28.32,NW,320,12.5,19.9,80,-99.99,,,-99.99,WSDL version 420,2013-04-14 01:39:00,
2013-04-13 19:44:00,34.7,29.8,28.32,NW,309,14.1,22.6,82,0.00,,,0.00,WSDL version 420,2013-04-14 01:44:00,
2013-04-13 19:49:00,34.5,30.1,28.32,NW,304,17.1,22.6,84,0.00,,,0.00,WSDL version 420,2013-04-14 01:49:00,
2013-04-13 19:54:00,34.5,30.4,28.32,NW,326,16.4,22.8,86,0.00,,,0.00,WSDL version 420,2013-04-14 01:54:00,
2013-04-13 19:59:00,34.5,30.7,28.32,North,349,18.8,23.7,87,0.00,,,0.00,WSDL version 420,2013-04-14 01:59:00,
2013-04-13 20:04:00,34.3,30.7,28.32,WNW,302,16.7,23.7,86,0.00,,,0.00,WSDL version 420,2013-04-14 02:04:00,
2013-04-13 20:09:00,34.0,30.1,28.32,NNW,338,16.6,26.4,86,0.00,,,0.00,WSDL version 420,2013-04-14 02:09:00,
2013-04-13 20:14:00,33.9,30.0,28.32,NW,318,19.3,26.4,86,0.00,,,0.00,WSDL version 420,2013-04-14 02:14:00,
2013-04-13 20:19:00,33.8,29.9,28.35,NW,312,19.3,26.4,86,0.00,,,0.00,WSDL version 420,2013-04-14 02:19:00,
2013-04-13 20:24:00,33.6,30.0,28.35,NNW,338,18.2,24.4,86,0.00,,,0.00,WSDL version 420,2013-04-14 02:24:00,
2013-04-13 20:29:00,33.6,30.0,28.35,NW,315,17.4,24.4,87,0.00,,,0.00,WSDL version 420,2013-04-14 02:29:00,
2013-04-13 20:34:00,33.5,30.0,28.35,NW,308,17.6,24.4,87,0.00,,,0.00,WSDL version 420,2013-04-14 02:34:00,
2013-04-13 20:39:00,33.4,29.9,28.35,NNW,338,14.8,17.7,87,0.00,,,0.00,WSDL version 420,2013-04-14 02:39:00,
2013-04-13 20:44:00,33.4,30.0,28.35,NNW,329,15.9,23.3,88,0.00,,,0.00,WSDL version 420,2013-04-14 02:44:00,
2013-04-13 20:49:00,33.4,30.2,28.32,NNW,338,14.7,23.5,88,0.00,,,0.00,WSDL version 420,2013-04-14 02:49:00,
2013-04-13 20:54:00,33.5,30.4,28.32,WNW,293,20.8,23.5,89,0.00,,,0.00,WSDL version 420,2013-04-14 02:54:00,
2013-04-13 20:59:00,33.6,30.7,28.32,NW,321,16.3,19.0,89,0.00,,,0.00,WSDL version 420,2013-04-14 02:59:00,
2013-04-13 21:04:00,33.8,30.8,28.35,North,349,14.4,19.0,89,0.00,,,0.00,WSDL version 420,2013-04-14 03:04:00,
2013-04-13 21:09:00,33.8,31.1,28.35,North,353,14.7,17.7,90,0.00,,,0.00,WSDL version 420,2013-04-14 03:09:00,
2013-04-13 21:14:00,34.0,31.4,28.35,NNW,345,12.5,22.1,90,0.00,,,0.00,WSDL version 420,2013-04-14 03:14:00,
2013-04-13 21:19:00,34.0,31.4,28.38,NNW,347,12.3,22.1,90,0.00,,,0.00,WSDL version 420,2013-04-14 03:19:00,
2013-04-13 21:24:00,34.0,31.4,28.38,NNW,338,14.1,22.1,90,0.00,,,0.00,WSDL version 420,2013-04-14 03:24:00,
2013-04-13 21:29:00,34.0,31.4,28.38,NNW,338,12.6,14.8,90,-99.99,,,-99.99,WSDL version 420,2013-04-14 03:29:00,
2013-04-13 21:34:00,34.0,31.5,28.38,NNW,338,11.1,13.6,91,0.00,,,0.00,WSDL version 420,2013-04-14 03:34:00,
2013-04-13 21:39:00,33.9,31.5,28.38,NW,320,12.0,13.2,91,0.00,,,0.00,WSDL version 420,2013-04-14 03:39:00,
2013-04-13 21:44:00,33.8,31.5,28.38,NW,326,11.2,13.2,91,0.00,,,0.00,WSDL version 420,2013-04-14 03:44:00,
2013-04-13 21:49:00,-999.0,-99.9,28.38,NNW,345,13.1,16.8,-999,0.00,,,0.00,WSDL version 420,2013-04-14 03:49:00,
2013-04-13 21:54:00,33.8,31.5,28.38,NW,326,12.9,16.8,91,0.00,,,0.00,WSDL version 420,2013-04-14 03:54:00,
2013-04-13 21:59:00,33.8,31.3,28.38,NW,315,14.3,14.3,90,0.00,,,0.00,WSDL version 420,2013-04-14 03:59:00,
2013-04-13 22:00:00,33.8,31.3,28.38,NW,315,14.3,14.3,90,0.00,,,0.00,WSDL version 420,2013-04-14 04:00:00,
2013-04-13 22:01:00,33.8,31.2,28.38,NW,315,14.3,14.3,90,0.00,,,0.00,WSDL version 420,2013-04-14 04:01:00,
2013-04-13 22:06:00,33.6,31.2,28.38,NW,315,14.3,14.3,90,0.00,,,0.00,WSDL version 420,2013-04-14 04:06:00,
2013-04-13 22:07:00,33.6,31.2,28.38,NW,315,14.3,14.3,90,0.00,,,0.00,WSDL version 420,2013-04-14 04:07:00,
2013-04-13 22:12:00,33.6,30.9,28.38,North,-999,-999.0,-999.0,90,0.00,,,0.00,WSDL version 420,2013-04-14 04:12:00,
2013-04-13 22:17:00,33.4,30.7,28.38,North,-999,-999.0,-999.0,90,0.00,,,0.00,WSDL version 420,2013-04-14 04:17:00,
2013-04-13 22:22:00,33.2,30.6,28.38,NNW,338,7.6,9.8,90,0.00,,,0.00,WSDL version 420,2013-04-14 04:22:00,
2013-04-13 22:28:00,33.1,30.5,28.38,NW,315,10.7,12.3,90,0.00,,,0.00,WSDL version 420,2013-04-14 04:28:00,
2013-04-13 22:33:00,33.1,30.6,28.38,WNW,293,9.6,12.3,91,0.00,,,0.00,WSDL version 420,2013-04-14 04:33:00,
2013-04-13 22:38:00,33.1,30.8,28.38,WNW,293,9.6,10.3,91,0.00,,,0.00,WSDL version 420,2013-04-14 04:38:00,
2013-04-13 22:43:00,33.1,30.8,28.38,WNW,293,9.6,10.3,91,0.00,,,0.00,WSDL version 420,2013-04-14 04:43:00,
2013-04-13 22:48:00,33.1,30.9,28.38,North,-999,-999.0,-999.0,92,0.00,,,0.00,WSDL version 420,2013-04-14 04:48:00,
2013-04-13 22:53:00,32.9,30.9,28.38,North,-999,-999.0,-999.0,92,0.00,,,0.00,WSDL version 420,2013-04-14 04:53:00,
2013-04-13 22:58:00,32.9,31.0,28.38,NW,315,8.9,10.5,93,0.00,,,0.00,WSDL version 420,2013-04-14 04:58:00,
2013-04-13 23:03:00,32.9,31.3,28.41,WNW,293,13.0,13.0,94,0.00,,,0.00,WSDL version 420,2013-04-14 05:03:00,
2013-04-13 23:08:00,32.9,31.5,28.41,WNW,293,13.0,13.0,94,0.00,,,0.00,WSDL version 420,2013-04-14 05:08:00,
2013-04-13 23:13:00,32.9,31.5,28.41,WNW,293,13.0,13.0,94,0.00,,,0.00,WSDL version 420,2013-04-14 05:13:00,
2013-04-13 23:18:00,32.9,31.5,28.41,North,-999,-999.0,-999.0,94,0.00,,,0.00,WSDL version 420,2013-04-14 05:18:00,
2013-04-13 23:23:00,32.9,31.7,28.41,North,-999,-999.0,-999.0,96,0.00,,,0.00,WSDL version 420,2013-04-14 05:23:00,
2013-04-13 23:28:00,32.9,31.8,28.41,North,-999,-999.0,-999.0,96,0.00,,,0.00,WSDL version 420,2013-04-14 05:28:00,
2013-04-13 23:33:00,32.9,31.8,28.44,North,-999,-999.0,-999.0,97,0.00,,,0.00,WSDL version 420,2013-04-14 05:33:00,
2013-04-13 23:38:00,32.9,31.9,28.44,North,-999,-999.0,-999.0,96,0.00,,,0.00,WSDL version 420,2013-04-14 05:38:00,
2013-04-13 23:43:00,32.9,31.8,28.44,North,-999,-999.0,-999.0,96,0.00,,,0.00,WSDL version 420,2013-04-14 05:43:00,
2013-04-13 23:49:00,32.9,31.7,28.44,North,-999,-999.0,-999.0,94,0.00,,,0.00,WSDL version 420,2013-04-14 05:49:00,
2013-04-13 23:54:00,32.9,31.5,28.44,North,-999,-999.0,-999.0,94,0.00,,,0.00,WSDL version 420,2013-04-14 05:54:00,
2013-04-13 23:59:00,32.9,31.4,28.44,North,-999,-999.0,-999.0,93,0.00,,,0.00,WSDL version 420,2013-04-14 05:59:00,